createdAt,value
2023-05-25T00:01:01.109Z,15.13
2023-05-25T00:03:32.012Z,17.50
2023-05-25T00:06:02.732Z,14.35
2023-05-25T00:08:34.173Z,13.73
2023-05-25T00:11:02.491Z,18.00
2023-05-25T00:13:31.059Z,16.58
2023-05-25T00:15:59.560Z,19.08
2023-05-25T00:18:29.731Z,10.40
2023-05-25T00:20:58.655Z,16.65
2023-05-25T00:23:28.553Z,19.60
2023-05-25T00:25:57.313Z,20.67
2023-05-25T00:28:26.151Z,13.90
2023-05-25T00:30:54.535Z,14.93
2023-05-25T00:33:23.385Z,14.32
2023-05-25T00:36:04.254Z,16.90
2023-05-25T00:38:34.106Z,11.90
2023-05-25T00:41:02.472Z,18.20
2023-05-25T00:43:30.642Z,16.67
2023-05-25T00:46:01.424Z,13.55
2023-05-25T00:48:30.395Z,16.27
2023-05-25T00:51:00.117Z,10.88
2023-05-25T00:53:34.490Z,13.48
2023-05-25T00:56:09.798Z,15.02
2023-05-25T00:58:43.391Z,13.15
2023-05-25T01:01:13.562Z,14.27
2023-05-25T01:03:45.953Z,11.93
2023-05-25T01:06:17.440Z,11.68
2023-05-25T01:08:49.588Z,13.82
2023-05-25T01:11:21.906Z,15.80
2023-05-25T01:13:53.971Z,13.10
2023-05-25T01:16:22.326Z,14.18
2023-05-25T01:18:53.286Z,15.32
2023-05-25T01:21:24.603Z,13.60
2023-05-25T01:24:00.490Z,18.73
2023-05-25T01:26:35.899Z,12.75
2023-05-25T01:29:05.036Z,18.63
2023-05-25T01:31:34.645Z,14.93
2023-05-25T01:34:04.516Z,13.38
2023-05-25T01:36:35.694Z,10.88
2023-05-25T01:39:07.828Z,10.80
2023-05-25T01:41:39.825Z,13.55
2023-05-25T01:44:09.086Z,13.52
2023-05-25T01:46:39.742Z,14.15
2023-05-25T01:49:17.044Z,17.13
2023-05-25T01:51:56.075Z,16.13
2023-05-25T01:54:31.744Z,13.32
2023-05-25T01:57:03.038Z,18.77
2023-05-25T01:59:32.728Z,12.05
2023-05-25T02:02:02.261Z,9.98
2023-05-25T02:04:31.240Z,14.57
2023-05-25T02:07:01.083Z,9.20
2023-05-25T02:09:30.257Z,18.60
2023-05-25T02:11:59.759Z,13.32
2023-05-25T02:14:28.192Z,11.70
2023-05-25T02:16:59.492Z,15.55
2023-05-25T02:19:27.707Z,10.13
2023-05-25T02:21:55.726Z,16.55
2023-05-25T02:24:27.344Z,12.02
2023-05-25T02:26:55.770Z,12.57
2023-05-25T02:29:23.700Z,18.20
2023-05-25T02:31:54.147Z,14.27
2023-05-25T02:34:22.523Z,13.27
2023-05-25T02:36:50.924Z,10.23
2023-05-25T02:39:19.076Z,11.85
2023-05-25T02:41:48.959Z,12.05
2023-05-25T02:44:17.280Z,14.52
2023-05-25T02:46:45.861Z,17.17
2023-05-25T02:49:14.140Z,12.48
2023-05-25T02:51:42.306Z,13.02
2023-05-25T02:54:10.511Z,13.63
2023-05-25T02:56:38.401Z,11.77
2023-05-25T02:59:11.447Z,11.95
2023-05-25T03:01:40.912Z,11.75
2023-05-25T03:04:08.842Z,14.20
2023-05-25T03:06:38.788Z,10.93
2023-05-25T03:09:11.132Z,12.77
2023-05-25T03:11:41.085Z,14.95
2023-05-25T03:14:14.553Z,14.20
2023-05-25T03:16:46.088Z,14.30
2023-05-25T03:19:14.270Z,9.70
2023-05-25T03:21:42.140Z,12.18
2023-05-25T03:24:10.215Z,13.45
2023-05-25T03:26:39.631Z,15.55
2023-05-25T03:29:08.257Z,11.55
2023-05-25T03:31:38.025Z,16.55
2023-05-25T03:34:07.026Z,11.73
2023-05-25T03:36:37.552Z,13.05
2023-05-25T03:39:06.282Z,17.00
2023-05-25T03:41:34.361Z,11.98
2023-05-25T03:44:02.437Z,15.00
2023-05-25T03:46:30.482Z,10.57
2023-05-25T03:49:00.434Z,16.83
2023-05-25T03:51:29.654Z,11.25
2023-05-25T03:53:57.969Z,12.35
2023-05-25T03:56:26.366Z,16.88
2023-05-25T03:58:54.384Z,15.15
2023-05-25T04:01:22.171Z,14.07
2023-05-25T04:03:50.397Z,17.80
2023-05-25T04:06:21.261Z,14.80
2023-05-25T04:08:50.524Z,16.70
2023-05-25T04:11:18.455Z,12.75
2023-05-25T04:13:46.855Z,17.17
2023-05-25T04:16:15.238Z,17.77
2023-05-25T04:18:43.632Z,15.77
2023-05-25T04:21:14.131Z,17.08
2023-05-25T04:23:44.434Z,16.45
2023-05-25T04:26:12.546Z,18.45
2023-05-25T04:28:42.904Z,13.52
2023-05-25T04:31:16.264Z,12.40
2023-05-25T04:34:21.870Z,14.02
2023-05-25T04:36:58.302Z,17.02
2023-05-25T04:39:27.603Z,17.20
2023-05-25T04:41:58.460Z,16.80
2023-05-25T04:44:29.989Z,17.88
2023-05-25T04:47:01.443Z,17.85
2023-05-25T04:49:35.154Z,16.65
2023-05-25T04:52:05.510Z,18.58
2023-05-25T04:54:35.802Z,14.63
2023-05-25T04:57:04.294Z,14.45
2023-05-25T04:59:33.192Z,19.02
2023-05-25T05:02:02.018Z,15.40
2023-05-25T05:04:30.543Z,17.02
2023-05-25T05:06:59.925Z,15.35
2023-05-25T05:09:30.936Z,19.25
2023-05-25T05:12:03.601Z,15.88
2023-05-25T05:14:37.309Z,16.08
2023-05-25T05:17:05.703Z,14.82
2023-05-25T05:19:34.383Z,16.00
2023-05-25T05:22:03.803Z,16.13
2023-05-25T05:24:31.959Z,17.30
2023-05-25T05:27:02.082Z,18.98
2023-05-25T05:29:39.531Z,14.55
2023-05-25T05:32:08.407Z,19.90
2023-05-25T05:34:37.748Z,14.85
2023-05-25T05:37:10.879Z,16.60
2023-05-25T05:39:42.258Z,21.33
2023-05-25T05:42:14.448Z,17.85
2023-05-25T05:44:44.436Z,16.50
2023-05-25T05:47:13.763Z,19.13
2023-05-25T05:49:41.825Z,21.13
2023-05-25T05:52:11.165Z,15.30
2023-05-25T05:54:39.825Z,22.33
2023-05-25T05:57:12.195Z,17.10
2023-05-25T05:59:41.494Z,21.58
2023-05-25T06:02:12.187Z,18.00
2023-05-25T06:04:40.536Z,22.27
2023-05-25T06:07:09.548Z,18.83
2023-05-25T06:09:37.966Z,22.13
2023-05-25T06:12:13.315Z,25.90
2023-05-25T06:14:41.563Z,23.15
2023-05-25T06:17:11.063Z,18.25
2023-05-25T06:19:39.198Z,14.15
2023-05-25T06:22:07.364Z,23.98
2023-05-25T06:24:35.714Z,18.58
2023-05-25T06:27:05.153Z,26.85
2023-05-25T06:29:33.721Z,22.55
2023-05-25T06:32:02.143Z,20.30
2023-05-25T06:34:32.302Z,18.85
2023-05-25T06:37:00.628Z,21.48
2023-05-25T06:39:31.906Z,21.17
2023-05-25T06:42:00.249Z,20.88
2023-05-25T06:44:33.907Z,15.73
2023-05-25T06:47:07.218Z,16.25
2023-05-25T06:49:37.268Z,22.33
2023-05-25T06:52:05.878Z,21.40
2023-05-25T06:54:34.253Z,17.90
2023-05-25T06:57:02.608Z,20.63
2023-05-25T06:59:31.274Z,21.95
2023-05-25T07:01:59.396Z,23.83
2023-05-25T07:04:28.883Z,20.58
2023-05-25T07:06:59.245Z,17.15
2023-05-25T07:09:27.396Z,22.27
2023-05-25T07:11:55.667Z,22.85
2023-05-25T07:14:23.796Z,18.58
2023-05-25T07:16:51.820Z,16.92
2023-05-25T07:19:19.943Z,17.92
2023-05-25T07:21:48.252Z,19.95
2023-05-25T07:24:18.440Z,22.33
2023-05-25T07:26:47.745Z,24.13
2023-05-25T07:29:16.670Z,18.27
2023-05-25T07:31:45.661Z,13.50
2023-05-25T07:34:14.108Z,20.17
2023-05-25T07:36:42.395Z,15.18
2023-05-25T07:39:11.426Z,15.43
2023-05-25T07:41:40.803Z,17.15
2023-05-25T07:44:09.275Z,17.80
2023-05-25T07:46:37.432Z,14.18
2023-05-25T07:49:06.747Z,15.70
2023-05-25T07:51:34.845Z,23.30
2023-05-25T07:54:02.762Z,18.52
2023-05-25T07:56:30.760Z,18.75
2023-05-25T07:59:01.248Z,15.02
2023-05-25T08:01:29.599Z,19.20
2023-05-25T08:03:58.845Z,20.42
2023-05-25T08:06:30.087Z,16.70
2023-05-25T08:08:57.964Z,16.95
2023-05-25T08:11:31.011Z,15.73
2023-05-25T08:14:01.672Z,19.45
2023-05-25T08:16:32.090Z,18.50
2023-05-25T08:19:04.012Z,18.75
2023-05-25T08:21:35.168Z,16.02
2023-05-25T08:24:06.563Z,16.70
2023-05-25T08:26:53.199Z,14.95
2023-05-25T08:29:37.908Z,17.90
2023-05-25T08:32:06.853Z,20.75
2023-05-25T08:34:35.288Z,16.50
2023-05-25T08:37:03.725Z,16.77
2023-05-25T08:39:33.512Z,17.95
2023-05-25T08:42:05.050Z,17.58
2023-05-25T08:44:33.628Z,19.88
2023-05-25T08:47:08.294Z,18.48
2023-05-25T08:49:39.856Z,16.33
2023-05-25T08:52:15.227Z,13.30
2023-05-25T08:54:45.848Z,13.60
2023-05-25T08:57:17.406Z,13.95
2023-05-25T08:59:49.346Z,17.08
2023-05-25T09:02:24.025Z,18.63
2023-05-25T09:04:52.424Z,15.60
2023-05-25T09:07:21.189Z,15.68
2023-05-25T09:09:49.707Z,13.27
2023-05-25T09:12:19.085Z,17.60
2023-05-25T09:14:48.336Z,16.77
2023-05-25T09:17:18.663Z,17.67
2023-05-25T09:19:48.354Z,10.32
2023-05-25T09:22:17.162Z,19.77
2023-05-25T09:24:47.348Z,15.25
2023-05-25T09:27:19.000Z,14.80
2023-05-25T09:29:49.646Z,12.98
2023-05-25T09:32:17.711Z,13.93
2023-05-25T09:34:47.799Z,14.77
2023-05-25T09:37:19.481Z,15.25
2023-05-25T09:39:49.088Z,11.75
2023-05-25T09:42:17.488Z,18.80
2023-05-25T09:44:46.342Z,23.60
2023-05-25T09:47:19.951Z,11.80
2023-05-25T09:49:50.826Z,9.45
2023-05-25T09:52:18.838Z,11.30
2023-05-25T09:54:47.268Z,13.57
2023-05-25T09:57:16.659Z,11.10
2023-05-25T09:59:45.423Z,11.65
2023-05-25T10:02:14.198Z,13.25
2023-05-25T10:04:42.516Z,11.60
2023-05-25T10:07:16.010Z,18.20
2023-05-25T10:09:46.585Z,13.82
2023-05-25T10:12:19.156Z,12.55
2023-05-25T10:14:47.816Z,11.70
2023-05-25T10:17:17.114Z,16.13
2023-05-25T10:19:49.249Z,10.65
2023-05-25T10:22:23.052Z,11.10
2023-05-25T10:24:56.350Z,9.13
2023-05-25T10:30:19.710Z,11.48
2023-05-25T10:32:48.275Z,12.65
2023-05-25T10:35:16.605Z,11.73
2023-05-25T10:37:46.729Z,12.02
2023-05-25T10:40:15.509Z,14.05
2023-05-25T10:42:43.726Z,11.50
2023-05-25T10:45:12.064Z,19.83
2023-05-25T10:47:42.411Z,22.35
2023-05-25T10:50:20.449Z,10.35
2023-05-25T10:52:59.211Z,10.15
2023-05-25T10:55:32.182Z,7.63
2023-05-25T10:58:10.468Z,10.13
2023-05-25T11:00:39.038Z,8.05
2023-05-25T11:03:07.167Z,8.23
2023-05-25T11:05:38.900Z,9.68
2023-05-25T11:08:10.128Z,7.85
2023-05-25T11:10:55.368Z,13.57
2023-05-25T11:13:25.760Z,7.80
2023-05-25T11:16:25.420Z,9.60
2023-05-25T11:18:55.102Z,8.70
2023-05-25T11:21:25.631Z,8.75
2023-05-25T11:23:56.015Z,8.95
2023-05-25T11:26:28.280Z,12.88
2023-05-25T11:28:59.537Z,9.48
2023-05-25T11:31:35.863Z,9.55
2023-05-25T11:34:07.274Z,7.93
2023-05-25T11:36:36.986Z,11.27
2023-05-25T11:39:17.196Z,14.77
2023-05-25T11:41:51.598Z,8.98
2023-05-25T11:44:28.711Z,6.90
2023-05-25T11:47:02.110Z,9.45
2023-05-25T11:49:30.521Z,9.15
2023-05-25T11:51:58.827Z,10.15
2023-05-25T11:54:31.498Z,13.95
2023-05-25T11:57:00.441Z,15.55
2023-05-25T11:59:32.254Z,9.93
2023-05-25T12:02:02.559Z,9.63
2023-05-25T12:04:35.787Z,7.07
2023-05-25T12:07:05.792Z,14.20
2023-05-25T12:09:37.680Z,14.50
2023-05-25T12:12:09.143Z,12.25
2023-05-25T12:14:48.481Z,10.70
2023-05-25T12:17:17.372Z,12.88
2023-05-25T12:19:46.777Z,10.07
2023-05-25T12:22:16.592Z,10.43
2023-05-25T12:24:46.145Z,9.38
2023-05-25T12:27:22.972Z,27.23
2023-05-25T12:29:53.539Z,23.85
2023-05-25T12:32:25.200Z,9.68
2023-05-25T12:34:53.961Z,10.60
2023-05-25T12:37:25.223Z,10.75
2023-05-25T12:39:55.880Z,12.00
2023-05-25T12:42:26.825Z,11.05
2023-05-25T12:45:01.994Z,6.88
2023-05-25T12:47:32.488Z,11.27
2023-05-25T12:50:15.235Z,12.45
2023-05-25T12:52:44.694Z,14.00
2023-05-25T12:55:28.479Z,14.35
2023-05-25T12:57:58.423Z,16.87
2023-05-25T13:00:28.534Z,12.50
2023-05-25T13:02:56.612Z,13.40
2023-05-25T13:05:26.340Z,13.95
2023-05-25T13:07:55.496Z,10.98
2023-05-25T13:10:24.018Z,15.10
2023-05-25T13:12:57.522Z,16.85
2023-05-25T13:15:28.211Z,7.78
2023-05-25T13:17:58.721Z,13.52
2023-05-25T13:20:28.324Z,9.63
2023-05-25T13:22:56.718Z,14.38
2023-05-25T13:25:27.745Z,12.57
2023-05-25T13:27:59.931Z,14.90
2023-05-25T13:30:30.779Z,16.63
2023-05-25T13:32:58.988Z,15.18
2023-05-25T13:35:41.589Z,9.82
2023-05-25T13:38:10.735Z,9.60
2023-05-25T13:40:38.717Z,8.90
2023-05-25T13:43:08.724Z,9.23
2023-05-25T13:45:37.394Z,7.50
2023-05-25T13:48:05.983Z,12.68
2023-05-25T13:50:34.171Z,12.43
2023-05-25T13:53:02.491Z,17.77
2023-05-25T13:55:38.539Z,16.13
2023-05-25T13:58:17.031Z,15.68
2023-05-25T14:00:49.569Z,11.00
2023-05-25T14:03:18.667Z,15.02
2023-05-25T14:05:53.483Z,16.25
2023-05-25T14:08:22.046Z,14.38
2023-05-25T14:10:52.169Z,13.60
2023-05-25T14:13:22.831Z,15.35
2023-05-25T14:15:51.226Z,14.90
2023-05-25T14:18:19.611Z,14.05
2023-05-25T14:20:48.250Z,14.40
2023-05-25T14:23:19.373Z,11.98
2023-05-25T14:25:48.843Z,18.58
2023-05-25T14:28:16.868Z,13.88
2023-05-25T14:30:47.047Z,16.90
2023-05-25T14:33:17.608Z,17.15
2023-05-25T14:35:46.079Z,18.27
2023-05-25T14:38:17.180Z,21.35
2023-05-25T14:40:45.632Z,22.23
2023-05-25T14:43:14.462Z,20.20
2023-05-25T14:45:42.610Z,26.67
2023-05-25T14:48:16.704Z,17.48
2023-05-25T14:50:45.483Z,17.92
2023-05-25T14:53:13.557Z,24.10
2023-05-25T14:55:41.981Z,13.82
2023-05-25T14:58:13.397Z,25.33
2023-05-25T15:00:41.824Z,19.52
2023-05-25T15:03:11.654Z,62.00
2023-05-25T15:05:49.013Z,18.98
2023-05-25T15:08:18.137Z,14.25
2023-05-25T15:10:46.469Z,24.70
2023-05-25T15:13:15.699Z,20.40
2023-05-25T15:15:43.945Z,21.17
2023-05-25T15:18:13.736Z,24.10
2023-05-25T15:20:41.985Z,23.23
2023-05-25T15:23:09.911Z,20.02
2023-05-25T15:25:37.945Z,18.65
2023-05-25T15:28:07.886Z,19.90
2023-05-25T15:30:36.632Z,19.90
2023-05-25T15:33:04.846Z,24.75
2023-05-25T15:35:34.877Z,22.83
2023-05-25T15:38:02.995Z,19.08
2023-05-25T15:40:31.524Z,19.85
2023-05-25T15:43:06.176Z,23.40
2023-05-25T15:45:34.593Z,20.40
2023-05-25T15:48:04.033Z,20.35
2023-05-25T15:50:32.342Z,22.88
2023-05-25T15:53:01.927Z,16.80
2023-05-25T15:55:29.891Z,19.65
2023-05-25T15:57:58.288Z,20.80
2023-05-25T16:00:27.313Z,22.55
2023-05-25T16:02:56.370Z,18.85
2023-05-25T16:05:24.842Z,19.92
2023-05-25T16:07:53.261Z,19.17
2023-05-25T16:10:23.168Z,14.98
2023-05-25T16:12:54.067Z,21.30
2023-05-25T16:15:22.957Z,16.80
2023-05-25T16:17:51.017Z,25.95
2023-05-25T16:20:19.361Z,18.13
2023-05-25T16:22:47.344Z,19.63
2023-05-25T16:25:16.159Z,20.90
2023-05-25T16:27:46.119Z,17.92
2023-05-25T16:30:14.616Z,19.65
2023-05-25T16:32:42.986Z,19.35
2023-05-25T16:35:11.676Z,18.98
2023-05-25T16:37:40.011Z,19.05
2023-05-25T16:40:10.393Z,17.27
2023-05-25T16:42:39.032Z,21.38
2023-05-25T16:45:09.912Z,16.77
2023-05-25T16:47:41.274Z,21.75
2023-05-25T16:50:10.371Z,21.65
2023-05-25T16:52:38.633Z,19.65
2023-05-25T16:55:08.380Z,21.08
2023-05-25T16:57:36.834Z,22.73
2023-05-25T17:00:09.062Z,20.73
2023-05-25T17:02:41.585Z,18.40
2023-05-25T17:05:10.754Z,23.80
2023-05-25T17:07:40.251Z,16.13
2023-05-25T17:10:12.190Z,23.02
2023-05-25T17:12:40.640Z,23.05
2023-05-25T17:15:11.235Z,20.17
2023-05-25T17:17:50.877Z,27.05
2023-05-25T17:20:19.310Z,20.58
2023-05-25T17:22:47.705Z,18.92
2023-05-25T17:25:21.604Z,26.33
2023-05-25T17:27:50.059Z,22.80
2023-05-25T17:30:21.909Z,15.68
2023-05-25T17:32:54.114Z,19.92
2023-05-25T17:35:22.707Z,24.70
2023-05-25T17:37:51.633Z,23.98
2023-05-25T17:40:20.224Z,22.38
2023-05-25T17:42:48.552Z,20.50
2023-05-25T17:45:17.169Z,22.80
2023-05-25T17:47:46.156Z,25.65
2023-05-25T17:50:15.880Z,26.73
2023-05-25T17:52:44.046Z,15.77
2023-05-25T17:55:12.173Z,23.75
2023-05-25T17:57:40.116Z,23.00
2023-05-25T18:00:09.187Z,21.52
2023-05-25T18:02:43.833Z,26.23
2023-05-25T18:05:12.280Z,31.52
2023-05-25T18:07:42.320Z,23.63
2023-05-25T18:10:11.236Z,30.60
2023-05-25T18:12:44.652Z,15.63
2023-05-25T18:15:13.412Z,27.25
2023-05-25T18:17:45.361Z,25.35
2023-05-25T18:20:14.277Z,25.17
2023-05-25T18:22:47.497Z,25.15
2023-05-25T18:25:16.484Z,30.10
2023-05-25T18:27:44.726Z,32.53
2023-05-25T18:30:16.903Z,21.83
2023-05-25T18:32:45.142Z,28.55
2023-05-25T18:35:13.310Z,23.20
2023-05-25T18:37:41.584Z,31.38
2023-05-25T18:40:13.261Z,27.60
2023-05-25T18:42:41.622Z,32.75
2023-05-25T18:45:10.512Z,30.50
2023-05-25T18:47:40.028Z,26.98
2023-05-25T18:50:08.930Z,30.38
2023-05-25T18:52:37.344Z,31.85
2023-05-25T18:55:05.876Z,26.00
2023-05-25T18:57:36.391Z,25.42
2023-05-25T19:00:09.126Z,33.10
2023-05-25T19:02:38.928Z,33.88
2023-05-25T19:05:11.947Z,28.42
2023-05-25T19:07:50.930Z,25.25
2023-05-25T19:10:27.893Z,36.75
2023-05-25T19:12:57.822Z,23.83
2023-05-25T19:15:26.184Z,35.28
2023-05-25T19:17:55.344Z,28.92
2023-05-25T19:20:23.597Z,29.15
2023-05-25T19:22:51.676Z,36.90
2023-05-25T19:25:19.739Z,29.40
2023-05-25T19:27:47.893Z,31.40
2023-05-25T19:30:20.777Z,34.33
2023-05-25T19:32:49.046Z,36.08
2023-05-25T19:35:17.246Z,33.75
2023-05-25T19:37:45.740Z,30.52
2023-05-25T19:40:14.363Z,33.05
2023-05-25T19:42:42.705Z,24.25
2023-05-25T19:45:11.611Z,33.53
2023-05-25T19:47:44.485Z,26.80
2023-05-25T19:50:12.727Z,28.65
2023-05-25T19:52:41.460Z,30.85
2023-05-25T19:55:13.175Z,33.45
2023-05-25T19:57:41.735Z,32.22
2023-05-25T20:00:21.390Z,35.75
2023-05-25T20:02:57.215Z,34.50
2023-05-25T20:05:25.922Z,29.95
2023-05-25T20:07:58.631Z,27.40
2023-05-25T20:10:27.016Z,36.72
2023-05-25T20:13:02.320Z,35.53
2023-05-25T20:15:30.532Z,28.98
2023-05-25T20:18:00.303Z,34.40
2023-05-25T20:20:28.733Z,26.60
2023-05-25T20:22:56.728Z,36.25
2023-05-25T20:25:24.974Z,30.48
2023-05-25T20:27:57.119Z,29.55
2023-05-25T20:30:27.836Z,27.83
2023-05-25T20:36:02.132Z,36.00
2023-05-25T20:38:33.344Z,30.73
2023-05-25T20:41:03.593Z,33.40
2023-05-25T20:43:31.859Z,30.73
2023-05-25T20:46:09.478Z,35.35
2023-05-25T20:48:40.408Z,31.70
2023-05-25T20:51:08.716Z,29.30
2023-05-25T20:53:37.292Z,29.30
2023-05-25T20:56:06.065Z,30.02
2023-05-25T20:58:34.368Z,34.80
2023-05-25T21:01:02.634Z,30.33
2023-05-25T21:03:31.244Z,29.95
2023-05-25T21:06:03.901Z,31.48
2023-05-25T21:08:34.698Z,33.63
2023-05-25T21:11:11.019Z,34.45
2023-05-25T21:13:39.115Z,39.30
2023-05-25T21:16:11.063Z,34.75
2023-05-25T21:18:39.314Z,32.03
2023-05-25T21:21:10.280Z,35.75
2023-05-25T21:23:41.600Z,34.35
2023-05-25T21:26:15.959Z,38.13
2023-05-25T21:28:44.086Z,39.38
2023-05-25T21:31:13.630Z,27.45
2023-05-25T21:33:45.999Z,30.05
2023-05-25T21:36:15.519Z,36.88
2023-05-25T21:38:45.733Z,30.48
2023-05-25T21:41:13.935Z,28.85
2023-05-25T21:43:45.454Z,25.27
2023-05-25T21:46:13.569Z,27.67
2023-05-25T21:48:42.010Z,38.05
2023-05-25T21:51:10.514Z,30.27
2023-05-25T21:53:41.333Z,30.30
2023-05-25T21:56:14.378Z,31.67
2023-05-25T21:58:46.254Z,32.60
2023-05-25T22:01:23.664Z,39.75
2023-05-25T22:03:51.798Z,33.65
2023-05-25T22:06:20.197Z,36.45
2023-05-25T22:08:49.430Z,32.58
2023-05-25T22:11:17.631Z,32.72
2023-05-25T22:13:45.725Z,31.88
2023-05-25T22:16:13.861Z,28.92
2023-05-25T22:18:42.146Z,33.25
2023-05-25T22:21:13.318Z,34.70
2023-05-25T22:23:41.708Z,28.55
2023-05-25T22:26:14.698Z,29.35
2023-05-25T22:28:56.128Z,37.45
2023-05-25T22:31:28.321Z,36.28
2023-05-25T22:33:59.844Z,28.88
2023-05-25T22:36:34.540Z,30.15
2023-05-25T22:39:03.167Z,33.55
2023-05-25T22:41:38.721Z,34.30
2023-05-25T22:44:07.074Z,38.38
2023-05-25T22:46:35.442Z,36.40
2023-05-25T22:49:04.059Z,38.65
2023-05-25T22:51:32.060Z,29.35
2023-05-25T22:54:00.154Z,41.88
2023-05-25T22:56:36.564Z,35.90
2023-05-25T22:59:05.068Z,37.70
2023-05-25T23:01:44.874Z,42.17
2023-05-25T23:04:23.838Z,33.40
2023-05-25T23:06:52.073Z,30.77
2023-05-25T23:09:30.173Z,42.20
2023-05-25T23:12:02.333Z,41.20
2023-05-25T23:14:30.943Z,38.85
2023-05-25T23:16:59.047Z,32.42
2023-05-25T23:19:27.174Z,44.55
2023-05-25T23:21:58.850Z,31.60
2023-05-25T23:24:28.142Z,34.78
2023-05-25T23:26:59.518Z,38.88
2023-05-25T23:29:41.266Z,32.00
2023-05-25T23:32:09.503Z,38.47
2023-05-25T23:34:37.545Z,35.42
2023-05-25T23:37:06.489Z,37.05
2023-05-25T23:39:34.905Z,44.08
2023-05-25T23:42:15.525Z,39.28
2023-05-25T23:44:47.407Z,43.17
2023-05-25T23:47:23.663Z,32.55
2023-05-25T23:50:03.729Z,31.58
2023-05-25T23:52:43.095Z,41.38
2023-05-25T23:55:13.909Z,39.17
2023-05-25T23:57:56.667Z,39.42
